Time;durP1;ratioP1;P1;durP2;ratioP2;P2;SDS_P1;SDS_P2;PMS_P1;PMS_P2;Temp;Humidity;BMP_temperature;BMP_pressure;BME280_temperature;BME280_humidity;BME280_pressure;Samples;Min_cycle;Max_cycle;Signal;HPM_P1;HPM_P2
2021/07/31 00:02:18;;;;;;;21.95;11.65;;;;;;;18.26;87.45;99535.59;1753117;81;21654;-82
2021/07/31 00:04:47;;;;;;;19.25;11.28;;;;;;;18.20;87.73;99536.94;1753377;81;21032;-77
2021/07/31 00:07:14;;;;;;;19.50;11.25;;;;;;;18.15;88.15;99533.30;1753242;81;22112;-80
2021/07/31 00:09:41;;;;;;;19.37;12.45;;;;;;;18.14;88.41;99540.91;1753517;81;21060;-79
2021/07/31 00:12:08;;;;;;;21.12;13.03;;;;;;;18.14;88.40;99537.41;1753050;81;21108;-78
2021/07/31 00:14:37;;;;;;;18.73;12.28;;;;;;;18.10;88.34;99539.45;1753234;81;21040;-78
2021/07/31 00:17:06;;;;;;;18.70;12.63;;;;;;;18.06;88.51;99539.34;1753151;81;21159;-78
2021/07/31 00:19:32;;;;;;;22.95;10.82;;;;;;;18.06;89.05;99535.35;1727065;81;21539;-79
2021/07/31 00:21:59;;;;;;;17.95;11.40;;;;;;;18.09;89.15;99538.26;1753212;81;21133;-78
2021/07/31 00:24:27;;;;;;;18.65;11.43;;;;;;;18.07;89.21;99541.52;1753464;81;21099;-78
2021/07/31 00:26:55;;;;;;;18.20;10.72;;;;;;;18.05;89.29;99536.79;1753524;81;21025;-78
2021/07/31 00:29:23;;;;;;;17.82;10.40;;;;;;;18.02;89.39;99539.21;1753496;81;21162;-79
2021/07/31 00:31:50;;;;;;;16.35;10.80;;;;;;;18.00;89.47;99540.66;1750030;82;21029;-78
2021/07/31 00:34:17;;;;;;;20.45;10.72;;;;;;;17.97;89.56;99540.06;1750988;82;21026;-78
2021/07/31 00:36:44;;;;;;;18.25;10.32;;;;;;;17.94;90.03;99536.28;1750944;82;21536;-78
2021/07/31 00:39:11;;;;;;;17.73;11.48;;;;;;;17.89;90.40;99542.45;1751259;82;20993;-78
2021/07/31 00:41:38;;;;;;;20.40;11.40;;;;;;;17.85;90.70;99536.98;1752300;79;21128;-79
2021/07/31 00:44:05;;;;;;;20.92;12.23;;;;;;;17.81;91.14;99534.56;1752271;79;20959;-78
2021/07/31 00:46:32;;;;;;;21.60;11.95;;;;;;;17.81;91.27;99534.56;1750782;79;21071;-78
2021/07/31 00:48:59;;;;;;;19.70;12.40;;;;;;;17.80;91.30;99538.14;1748564;82;21045;-78
2021/07/31 00:51:28;;;;;;;22.52;11.95;;;;;;;17.80;91.50;99536.81;1747882;82;21092;-77
2021/07/31 00:53:57;;;;;;;20.37;11.80;;;;;;;17.78;91.56;99532.12;1755368;81;21979;-77
2021/07/31 00:56:24;;;;;;;21.80;12.15;;;;;;;17.78;91.64;99534.78;1765595;81;21119;-78
2021/07/31 00:58:52;;;;;;;23.20;11.22;;;;;;;17.77;91.56;99534.39;1765967;81;21615;-77
2021/07/31 01:01:20;;;;;;;17.45;12.30;;;;;;;17.74;91.59;99535.97;1765715;81;21040;-77
2021/07/31 01:03:47;;;;;;;16.52;11.68;;;;;;;17.73;91.69;99528.93;1766230;81;21076;-80
2021/07/31 01:06:15;;;;;;;15.03;10.93;;;;;;;17.74;91.73;99531.14;1766217;81;21554;-78
2021/07/31 01:08:43;;;;;;;21.15;11.55;;;;;;;17.72;91.76;99532.58;1765831;81;21013;-79
2021/07/31 01:11:12;;;;;;;17.65;10.93;;;;;;;17.71;91.95;99529.53;1765431;81;21060;-79
2021/07/31 01:13:40;;;;;;;19.20;11.30;;;;;;;17.70;91.99;99533.66;1766401;81;21076;-79
2021/07/31 01:16:08;;;;;;;23.50;11.40;;;;;;;17.66;92.07;99531.70;1766274;81;21055;-77
2021/07/31 01:18:38;;;;;;;19.12;11.70;;;;;;;17.63;92.12;99533.27;1737967;81;21128;-76
2021/07/31 01:21:06;;;;;;;19.65;12.80;;;;;;;17.62;92.45;99531.56;1764913;81;21060;-75
2021/07/31 01:23:33;;;;;;;24.37;11.90;;;;;;;17.62;92.46;99534.22;1765802;81;21108;-77
2021/07/31 01:26:02;;;;;;;20.43;12.43;;;;;;;17.59;92.41;99529.14;1765852;81;21661;-76
2021/07/31 01:28:29;;;;;;;29.80;12.30;;;;;;;17.59;92.50;99536.64;1765905;81;21196;-75
2021/07/31 01:30:57;;;;;;;15.05;11.55;;;;;;;17.55;92.70;99536.53;1765613;81;21149;-75
2021/07/31 01:33:24;;;;;;;17.20;10.78;;;;;;;17.52;92.99;99533.23;1765717;81;21021;-76
2021/07/31 01:35:53;;;;;;;17.95;12.00;;;;;;;17.52;93.28;99537.22;1766191;81;21077;-77
2021/07/31 01:38:28;;;;;;;20.10;11.15;;;;;;;17.52;93.28;99539.89;1764544;81;21057;-75
2021/07/31 01:40:55;;;;;;;20.45;11.15;;;;;;;17.50;93.29;99535.16;1765601;81;21005;-74
2021/07/31 01:43:22;;;;;;;25.72;11.15;;;;;;;17.47;93.56;99536.24;1766164;81;21125;-75
2021/07/31 01:45:49;;;;;;;20.72;10.75;;;;;;;17.47;93.87;99534.91;1738172;81;21536;-76
2021/07/31 01:48:19;;;;;;;18.42;11.33;;;;;;;17.46;94.27;99537.67;1765635;81;21947;-76
2021/07/31 01:50:48;;;;;;;28.62;11.22;;;;;;;17.43;94.33;99532.11;1766648;81;21033;-75
2021/07/31 01:53:15;;;;;;;19.40;10.75;;;;;;;17.39;94.31;99532.83;1765529;80;21735;-74
2021/07/31 01:55:44;;;;;;;23.83;11.85;;;;;;;17.39;94.30;99539.48;1778719;80;21830;-74
2021/07/31 01:58:12;;;;;;;21.97;11.63;;;;;;;17.38;94.59;99543.09;1778133;80;21555;-73
2021/07/31 02:00:44;;;;;;;25.17;13.10;;;;;;;17.36;94.64;99545.02;1777523;80;21088;-74
2021/07/31 02:03:12;;;;;;;20.17;11.63;;;;;;;17.34;94.58;99544.28;1777966;80;20994;-74
2021/07/31 02:05:41;;;;;;;19.57;12.30;;;;;;;17.31;94.74;99543.19;1775705;80;21053;-74
2021/07/31 02:08:10;;;;;;;24.55;12.93;;;;;;;17.28;94.83;99544.75;1778518;80;21262;-73
2021/07/31 02:10:40;;;;;;;22.60;11.97;;;;;;;17.24;94.94;99540.62;1776473;80;21080;-75
2021/07/31 02:13:07;;;;;;;26.07;12.58;;;;;;;17.24;95.13;99544.61;1778261;80;21037;-74
2021/07/31 02:15:40;;;;;;;19.07;12.33;;;;;;;17.23;95.19;99546.92;1778763;80;21037;-76
2021/07/31 02:18:08;;;;;;;22.25;12.40;;;;;;;17.22;95.29;99545.20;1747695;80;21504;-75
2021/07/31 02:20:35;;;;;;;18.27;12.18;;;;;;;17.19;95.45;99544.11;1778725;80;21472;-74
2021/07/31 02:23:04;;;;;;;20.05;10.85;;;;;;;17.16;95.72;99546.97;1776547;80;21323;-73
2021/07/31 02:25:33;;;;;;;21.87;11.63;;;;;;;17.14;96.04;99551.09;1745738;80;21028;-72
2021/07/31 02:28:18;;;;;;;22.48;12.05;;;;;;;17.17;96.48;99547.36;1777950;80;21662;-73
2021/07/31 02:30:46;;;;;;;23.60;11.75;;;;;;;17.16;96.35;99550.97;1778024;80;21115;-73
2021/07/31 02:33:15;;;;;;;19.92;11.53;;;;;;;17.16;96.33;99553.63;1777763;80;22088;-74
2021/07/31 02:35:43;;;;;;;17.95;11.73;;;;;;;17.15;96.32;99555.93;1778373;80;21005;-74
2021/07/31 02:38:24;;;;;;;21.85;11.60;;;;;;;17.16;96.35;99561.61;1775933;80;21020;-72
2021/07/31 02:40:52;;;;;;;22.67;11.83;;;;;;;17.14;96.46;99558.23;1748136;80;21088;-72
2021/07/31 02:43:19;;;;;;;18.50;11.38;;;;;;;17.14;96.51;99563.56;1778180;80;21048;-70
2021/07/31 02:45:48;;;;;;;22.07;11.30;;;;;;;17.14;96.58;99556.91;1778301;80;21166;-73
2021/07/31 02:48:17;;;;;;;21.05;11.20;;;;;;;17.15;96.70;99562.58;1777977;80;21091;-74
2021/07/31 02:50:48;;;;;;;20.65;12.37;;;;;;;17.14;96.69;99563.56;1778509;80;21044;-77
2021/07/31 02:53:21;;;;;;;23.98;11.75;;;;;;;17.16;96.61;99562.94;1748576;80;21456;-79
2021/07/31 02:55:48;;;;;;;17.25;11.50;;;;;;;17.17;96.42;99565.98;1779041;80;21045;-77
2021/07/31 02:58:15;;;;;;;19.67;11.10;;;;;;;17.16;96.53;99567.80;1778310;80;21147;-78
2021/07/31 03:00:43;;;;;;;18.48;11.35;;;;;;;17.16;96.66;99569.59;1768346;80;21544;-76
2021/07/31 03:03:10;;;;;;;23.12;10.90;;;;;;;17.17;96.78;99561.99;1741621;82;21050;-75
2021/07/31 03:05:39;;;;;;;18.27;10.90;;;;;;;17.20;96.87;99563.09;1741842;82;21118;-75
2021/07/31 03:08:06;;;;;;;17.27;11.65;;;;;;;17.25;96.95;99563.59;1741479;82;21563;-76
2021/07/31 03:10:35;;;;;;;16.65;11.53;;;;;;;17.29;96.88;99566.41;1712933;82;21239;-75
2021/07/31 03:13:02;;;;;;;23.45;12.10;;;;;;;17.34;97.00;99566.06;1741708;82;21062;-75
2021/07/31 03:15:30;;;;;;;16.87;12.28;;;;;;;17.40;97.14;99571.78;1737607;80;21106;-75
2021/07/31 03:17:58;;;;;;;25.85;11.90;;;;;;;17.48;97.21;99573.02;1726982;83;21095;-77
2021/07/31 03:20:25;;;;;;;14.83;10.30;;;;;;;17.58;97.28;99578.04;1727033;83;21047;-76
2021/07/31 03:22:57;;;;;;;19.10;11.08;;;;;;;17.70;97.14;99585.09;1758216;80;21568;-76
2021/07/31 03:25:25;;;;;;;22.65;11.40;;;;;;;17.80;96.83;99578.09;1778664;80;21111;-79
2021/07/31 03:27:52;;;;;;;17.07;11.43;;;;;;;17.95;96.48;99583.28;1778660;80;21020;-79
2021/07/31 03:30:21;;;;;;;21.87;11.28;;;;;;;18.07;96.00;99579.66;1760581;80;21095;-77
2021/07/31 03:33:01;;;;;;;20.32;12.43;;;;;;;18.22;95.59;99585.16;1769782;80;21014;-73
2021/07/31 03:35:28;;;;;;;17.20;11.60;;;;;;;18.44;94.98;99586.14;1768767;80;21607;-74
2021/07/31 03:38:03;;;;;;;19.35;11.40;;;;;;;18.80;94.22;99589.08;1755137;80;21519;-74
2021/07/31 03:40:31;;;;;;;14.33;10.35;;;;;;;19.38;92.38;99582.66;1760961;80;21059;-74
2021/07/31 03:43:00;;;;;;;19.45;11.03;;;;;;;19.99;89.68;99582.04;1777664;80;21580;-76
2021/07/31 03:45:27;;;;;;;18.37;11.57;;;;;;;20.59;86.69;99584.47;1765769;80;21037;-74
2021/07/31 03:47:57;;;;;;;16.02;11.28;;;;;;;21.15;83.31;99590.63;1770292;80;21120;-74
2021/07/31 03:50:26;;;;;;;24.65;12.18;;;;;;;21.66;80.55;99587.89;1747561;82;21125;-74
2021/07/31 03:52:54;;;;;;;23.02;12.95;;;;;;;22.12;78.31;99583.62;1770249;80;21009;-75
2021/07/31 03:55:23;;;;;;;17.70;12.50;;;;;;;22.59;75.91;99583.64;1751061;80;21520;-74
2021/07/31 03:57:51;;;;;;;20.12;12.37;;;;;;;22.96;73.96;99579.60;1747405;82;21143;-74
2021/07/31 04:00:18;;;;;;;24.30;12.85;;;;;;;23.34;72.15;99576.84;1767155;80;21555;-75
2021/07/31 04:02:47;;;;;;;22.13;12.73;;;;;;;23.71;70.15;99577.19;1750607;80;20994;-74
2021/07/31 04:05:15;;;;;;;19.45;12.35;;;;;;;24.02;68.28;99577.66;1711710;83;21065;-75
2021/07/31 04:07:43;;;;;;;22.10;13.18;;;;;;;24.30;66.80;99582.39;1683413;84;21035;-74
2021/07/31 04:10:29;;;;;;;23.02;11.33;;;;;;;24.53;65.28;99576.50;1747464;82;21040;-75
2021/07/31 04:13:15;;;;;;;20.40;12.23;;;;;;;24.75;64.34;99580.45;1747130;82;21118;-75
2021/07/31 04:15:56;;;;;;;20.77;12.13;;;;;;;24.95;63.73;99583.75;1747208;82;21007;-76
2021/07/31 04:18:24;;;;;;;27.07;12.95;;;;;;;25.19;62.99;99583.00;1766431;80;21520;-75
2021/07/31 04:20:52;;;;;;;25.60;13.62;;;;;;;25.46;62.14;99587.28;1769537;80;21032;-75
2021/07/31 04:23:19;;;;;;;19.75;12.55;;;;;;;25.72;60.86;99581.25;1760419;80;21060;-75
2021/07/31 04:25:47;;;;;;;21.33;12.93;;;;;;;25.96;60.67;99587.69;1765248;80;21552;-75
2021/07/31 04:28:15;;;;;;;17.65;13.25;;;;;;;26.25;60.02;99580.89;1778172;80;21049;-75
2021/07/31 04:30:41;;;;;;;25.85;14.07;;;;;;;26.57;59.22;99580.00;1774154;80;21033;-76
2021/07/31 04:33:09;;;;;;;21.45;15.10;;;;;;;26.89;58.02;99584.95;1758660;80;21542;-76
2021/07/31 04:35:36;;;;;;;24.07;14.47;;;;;;;27.19;56.63;99581.93;1754276;79;21044;-75
2021/07/31 04:38:03;;;;;;;20.00;12.75;;;;;;;27.39;55.47;99577.78;1769786;80;21089;-75
2021/07/31 04:40:29;;;;;;;22.58;11.93;;;;;;;27.55;54.66;99581.41;1746293;80;21043;-75
2021/07/31 04:42:57;;;;;;;23.98;14.20;;;;;;;27.78;53.48;99572.77;1743257;80;21068;-76
2021/07/31 04:45:24;;;;;;;24.05;14.15;;;;;;;28.02;52.71;99571.77;1747017;80;21578;-76
2021/07/31 04:47:51;;;;;;;25.80;13.35;;;;;;;28.17;52.28;99573.13;1763183;80;21037;-75
2021/07/31 04:50:17;;;;;;;35.43;13.95;;;;;;;28.25;51.92;99578.97;1754510;80;21090;-76
2021/07/31 04:52:46;;;;;;;19.45;12.47;;;;;;;28.40;51.64;99579.00;1762327;80;21020;-76
2021/07/31 04:55:16;;;;;;;27.98;13.83;;;;;;;28.44;51.52;99573.55;1755413;80;21084;-75
2021/07/31 04:57:43;;;;;;;26.05;16.35;;;;;;;28.57;51.39;99571.03;1746987;80;21048;-74
2021/07/31 05:00:12;;;;;;;25.00;17.15;;;;;;;28.80;50.52;99572.80;1748871;80;21635;-75
2021/07/31 05:02:40;;;;;;;32.58;13.35;;;;;;;28.96;50.02;99576.66;1762800;80;22240;-75
2021/07/31 05:05:08;;;;;;;15.25;9.98;;;;;;;29.12;49.00;99570.20;1763396;80;21049;-77
2021/07/31 05:07:35;;;;;;;17.37;9.53;;;;;;;29.14;47.38;99571.38;1762718;80;21562;-75
2021/07/31 05:10:03;;;;;;;15.78;9.05;;;;;;;29.05;47.38;99570.62;1765087;80;21064;-75
2021/07/31 05:12:30;;;;;;;14.50;9.70;;;;;;;29.10;46.80;99574.14;1761988;80;21076;-77
2021/07/31 05:14:57;;;;;;;12.30;8.00;;;;;;;29.13;46.49;99575.14;1762437;80;21525;-75
2021/07/31 05:17:24;;;;;;;15.68;8.43;;;;;;;29.30;45.53;99575.73;1764300;80;21105;-76
2021/07/31 05:19:53;;;;;;;12.53;8.20;;;;;;;29.55;44.55;99581.64;1762841;80;21622;-74
2021/07/31 05:22:20;;;;;;;10.90;8.23;;;;;;;29.76;44.09;99570.80;1773914;80;21542;-76
2021/07/31 05:24:53;;;;;;;18.87;8.43;;;;;;;30.10;43.29;99574.64;1778303;80;21001;-75
2021/07/31 05:27:16;;;;;;;12.25;7.65;;;;;;;30.56;41.81;99575.50;1767507;80;21242;-76
2021/07/31 05:29:43;;;;;;;14.00;7.20;;;;;;;30.56;41.81;99575.50;1762328;80;21515;-75
2021/07/31 05:32:10;;;;;;;10.48;6.53;;;;;;;30.90;40.17;99575.20;1755410;80;21044;-76
2021/07/31 05:34:36;;;;;;;13.85;7.78;;;;;;;30.90;40.17;99575.20;1753182;81;21044;-76
2021/07/31 05:37:04;;;;;;;13.18;6.90;;;;;;;31.10;39.76;99576.09;1761919;80;21052;-76
2021/07/31 05:39:33;;;;;;;11.18;6.78;;;;;;;31.32;39.28;99580.05;1753373;81;21931;-76
2021/07/31 05:42:05;;;;;;;13.75;6.70;;;;;;;31.60;37.99;99577.72;1769640;80;21529;-76
2021/07/31 05:44:35;;;;;;;10.78;6.42;;;;;;;31.60;37.99;99577.72;1771914;80;21040;-75
2021/07/31 05:47:02;;;;;;;11.00;6.53;;;;;;;31.74;37.60;99578.05;1783549;80;21028;-76
2021/07/31 05:49:30;;;;;;;23.00;11.25;;;;;;;31.84;38.33;99571.69;1782959;80;21099;-75
2021/07/31 05:51:58;;;;;;;16.00;9.60;;;;;;;32.04;38.15;99576.31;1771565;80;21105;-77
2021/07/31 05:54:24;;;;;;;12.55;6.90;;;;;;;32.25;37.74;99573.87;1769108;80;21084;-75
2021/07/31 05:56:53;;;;;;;11.65;6.35;;;;;;;32.51;36.05;99571.65;1768025;80;21041;-76
2021/07/31 05:59:20;;;;;;;13.95;5.97;;;;;;;32.51;34.89;99571.65;1753012;80;21898;-76
2021/07/31 06:01:47;;;;;;;11.30;6.28;;;;;;;32.27;34.98;99573.98;1753762;80;21052;-75
2021/07/31 06:04:14;;;;;;;9.65;5.75;;;;;;;32.07;35.00;99573.16;1780152;80;21125;-76
2021/07/31 06:06:41;;;;;;;10.98;5.72;;;;;;;32.19;35.35;99577.77;1776501;80;21104;-75
2021/07/31 06:09:09;;;;;;;9.60;5.95;;;;;;;32.20;34.17;99575.88;1773591;80;21572;-76
2021/07/31 06:11:35;;;;;;;11.10;6.47;;;;;;;31.98;34.17;99580.19;1771065;80;20985;-75
2021/07/31 06:14:03;;;;;;;12.47;5.95;;;;;;;31.90;34.58;99574.91;1764282;80;21123;-75
2021/07/31 06:16:30;;;;;;;26.23;7.58;;;;;;;31.98;35.08;99578.83;1765999;80;21114;-77
2021/07/31 06:18:58;;;;;;;8.58;5.55;;;;;;;32.06;35.12;99581.03;1762980;80;21076;-77
2021/07/31 06:21:28;;;;;;;10.18;4.72;;;;;;;32.04;34.08;99588.56;1753022;80;21033;-74
2021/07/31 06:23:58;;;;;;;9.93;5.10;;;;;;;32.42;33.28;99586.52;1769913;80;21076;-77
2021/07/31 06:26:26;;;;;;;9.33;5.40;;;;;;;32.97;31.78;99590.61;1775436;80;21052;-74
2021/07/31 06:28:54;;;;;;;8.83;5.03;;;;;;;33.46;31.64;99589.66;1763445;80;21124;-73
2021/07/31 06:31:27;;;;;;;10.75;5.17;;;;;;;33.87;30.65;99592.95;1754018;80;21582;-76
2021/07/31 06:33:54;;;;;;;10.30;5.22;;;;;;;34.23;30.11;99595.86;1759036;80;20986;-77
2021/07/31 06:36:21;;;;;;;8.45;5.08;;;;;;;33.70;29.87;99591.31;1780114;80;21056;-78
2021/07/31 06:38:48;;;;;;;10.95;5.80;;;;;;;33.07;31.14;99593.44;1761905;80;21012;-76
2021/07/31 06:41:15;;;;;;;14.05;4.95;;;;;;;32.98;31.78;99594.17;1744208;80;21106;-77
2021/07/31 06:43:42;;;;;;;10.85;5.72;;;;;;;33.20;30.77;99588.75;1731686;80;21145;-77
2021/07/31 06:46:13;;;;;;;13.48;5.42;;;;;;;33.09;31.54;99590.80;1767828;80;20916;-75
2021/07/31 06:48:40;;;;;;;8.80;4.72;;;;;;;33.21;31.18;99590.41;1756757;80;21041;-76
2021/07/31 06:51:07;;;;;;;8.83;5.30;;;;;;;33.28;30.04;99590.91;1764065;80;21060;-75
2021/07/31 06:53:35;;;;;;;7.65;4.35;;;;;;;33.10;30.46;99591.63;1769517;80;21476;-77
2021/07/31 06:56:03;;;;;;;8.08;5.05;;;;;;;32.86;30.93;99579.01;1756468;80;21598;-76
2021/07/31 06:58:29;;;;;;;8.93;4.58;;;;;;;32.80;30.04;99582.05;1771206;80;20997;-77
2021/07/31 07:00:57;;;;;;;8.33;4.45;;;;;;;32.91;30.29;99575.63;1765607;79;89439;-77
2021/07/31 07:03:24;;;;;;;5.58;3.95;;;;;;;33.25;29.14;99575.82;1763358;79;22201;-76
2021/07/31 07:05:51;;;;;;;11.65;4.20;;;;;;;33.62;28.55;99567.85;1712958;82;21746;-76
2021/07/31 07:08:18;;;;;;;5.10;3.83;;;;;;;34.11;27.71;99576.31;1723549;81;21569;-75
2021/07/31 07:10:45;;;;;;;7.25;4.80;;;;;;;34.56;26.64;99576.09;1721951;82;21116;-76
2021/07/31 07:13:12;;;;;;;7.28;4.28;;;;;;;34.85;26.50;99569.02;1720163;82;21017;-75
2021/07/31 07:15:43;;;;;;;6.90;3.90;;;;;;;35.17;26.89;99566.13;1717880;82;21102;-77
2021/07/31 07:18:10;;;;;;;6.58;4.10;;;;;;;35.62;25.70;99567.09;1714637;82;21475;-76
2021/07/31 07:20:38;;;;;;;6.85;4.08;;;;;;;35.64;25.09;99572.63;1714451;82;21081;-75
2021/07/31 07:23:08;;;;;;;9.93;4.03;;;;;;;34.96;26.34;99571.53;1711902;83;21133;-77
2021/07/31 07:25:36;;;;;;;6.37;4.30;;;;;;;34.76;26.84;99568.49;1727471;82;21076;-75
2021/07/31 07:28:04;;;;;;;10.23;4.65;;;;;;;34.91;26.45;99568.66;1709487;83;21011;-77
2021/07/31 07:30:31;;;;;;;10.60;4.67;;;;;;;34.77;26.17;99568.81;1715704;82;21092;-77
2021/07/31 07:32:58;;;;;;;7.45;4.53;;;;;;;34.64;26.53;99571.70;1716555;82;21072;-77
2021/07/31 07:35:25;;;;;;;11.80;4.45;;;;;;;34.46;26.38;99573.85;1720263;82;21640;-76
2021/07/31 07:37:52;;;;;;;9.90;4.70;;;;;;;34.19;26.69;99567.84;1721832;82;21065;-77
2021/07/31 07:40:18;;;;;;;13.93;5.08;;;;;;;33.67;27.04;99571.28;1713383;83;21072;-75
2021/07/31 07:42:46;;;;;;;13.72;4.75;;;;;;;33.51;27.18;99570.72;1674050;83;21202;-77
2021/07/31 07:45:13;;;;;;;8.43;4.67;;;;;;;33.46;27.70;99571.91;1712276;83;21705;-76
2021/07/31 07:47:40;;;;;;;12.03;4.60;;;;;;;33.61;26.58;99567.02;1719651;82;21037;-77
2021/07/31 07:50:07;;;;;;;9.50;4.20;;;;;;;33.58;26.20;99568.81;1714587;82;21117;-77
2021/07/31 07:52:34;;;;;;;4.67;3.83;;;;;;;33.18;26.33;99567.67;1733029;82;21128;-76
2021/07/31 07:55:01;;;;;;;10.45;4.53;;;;;;;32.90;26.82;99573.94;1731882;82;21876;-79
2021/07/31 07:57:29;;;;;;;9.18;3.60;;;;;;;33.21;26.24;99575.41;1719579;82;21066;-76
2021/07/31 07:59:56;;;;;;;10.78;4.50;;;;;;;33.45;25.70;99572.95;1733037;82;21072;-80
2021/07/31 08:02:23;;;;;;;11.05;4.33;;;;;;;33.46;26.46;99571.91;1738360;82;21615;-76
2021/07/31 08:04:50;;;;;;;10.58;4.47;;;;;;;33.55;26.23;99570.59;1720005;81;21066;-76
2021/07/31 08:07:17;;;;;;;9.98;4.03;;;;;;;33.74;26.03;99569.34;1736206;82;21562;-76
2021/07/31 08:09:44;;;;;;;11.35;4.70;;;;;;;34.12;25.96;99572.50;1711914;82;21051;-76
2021/07/31 08:12:11;;;;;;;10.88;4.37;;;;;;;34.22;25.82;99575.58;1724702;82;21064;-77
2021/07/31 08:14:38;;;;;;;8.13;4.22;;;;;;;34.25;25.70;99576.48;1720572;82;21064;-78
2021/07/31 08:17:05;;;;;;;10.28;4.30;;;;;;;34.27;25.27;99570.27;1716475;82;21016;-78
2021/07/31 08:19:34;;;;;;;8.65;3.98;;;;;;;34.24;24.71;99568.83;1721637;82;22127;-75
2021/07/31 08:22:01;;;;;;;12.18;4.22;;;;;;;33.98;24.90;99572.61;1725251;82;21088;-77
2021/07/31 08:24:28;;;;;;;8.90;3.70;;;;;;;34.39;24.84;99569.81;1726627;82;21059;-77
2021/07/31 08:26:55;;;;;;;8.48;3.83;;;;;;;35.03;24.22;99573.64;1733360;82;21034;-77
2021/07/31 08:29:21;;;;;;;6.08;4.25;;;;;;;35.37;24.48;99568.59;1710202;82;21041;-76
2021/07/31 08:31:49;;;;;;;6.58;4.47;;;;;;;35.45;23.87;99569.61;1718546;81;119376;-77
2021/07/31 08:34:17;;;;;;;9.05;3.80;;;;;;;35.59;24.14;99564.27;1689679;83;21509;-77
2021/07/31 08:36:44;;;;;;;11.57;4.78;;;;;;;35.49;23.45;99562.61;1679327;84;21040;-76
2021/07/31 08:39:11;;;;;;;7.97;4.00;;;;;;;34.94;23.81;99572.29;1665995;85;21081;-76
2021/07/31 08:41:39;;;;;;;8.28;4.40;;;;;;;34.59;24.40;99560.58;1671423;85;21569;-77
2021/07/31 08:44:06;;;;;;;12.82;4.80;;;;;;;34.30;25.38;99561.61;1679535;85;21140;-76
2021/07/31 08:47:25;;;;;;;13.45;5.25;;;;;;;34.18;25.73;99564.25;1880824;75;23367;-78
2021/07/31 08:49:52;;;;;;;14.87;4.37;;;;;;;34.12;25.72;99567.91;1843101;75;21504;-80
2021/07/31 08:52:22;;;;;;;12.85;5.35;;;;;;;34.43;25.58;99572.41;1841988;76;21321;-79
2021/07/31 08:54:49;;;;;;;9.08;4.12;;;;;;;34.35;25.52;99572.72;1852337;75;21547;-80
2021/07/31 08:57:16;;;;;;;9.55;4.17;;;;;;;34.38;25.40;99566.80;1847938;77;22115;-80
2021/07/31 08:59:46;;;;;;;6.17;3.72;;;;;;;34.82;24.84;99562.12;1857934;77;21023;-80
2021/07/31 09:02:13;;;;;;;4.72;3.90;;;;;;;35.34;24.26;99559.45;1858511;75;20972;-80
2021/07/31 09:04:46;;;;;;;6.87;3.67;;;;;;;35.89;23.20;99551.04;1856775;75;21126;-80
2021/07/31 09:07:14;;;;;;;7.85;4.08;;;;;;;36.31;22.32;99562.77;1847756;75;21496;-80
2021/07/31 09:09:42;;;;;;;5.78;3.90;;;;;;;36.43;22.34;99555.91;1852603;75;21428;-79
2021/07/31 09:12:12;;;;;;;9.40;4.00;;;;;;;36.28;22.31;99558.29;1843693;75;21052;-80
2021/07/31 09:14:47;;;;;;;9.95;4.25;;;;;;;36.44;22.16;99558.10;1852052;75;21012;-79
2021/07/31 09:17:24;;;;;;;8.85;4.12;;;;;;;36.28;22.07;99558.29;1848354;75;21958;-81
2021/07/31 09:19:51;;;;;;;9.15;4.00;;;;;;;36.22;22.07;99548.30;1814635;75;21067;-79
2021/07/31 09:22:17;;;;;;;10.93;4.22;;;;;;;36.61;22.07;99545.91;1854023;75;21110;-78
2021/07/31 09:24:44;;;;;;;7.15;3.90;;;;;;;37.10;21.86;99542.25;1831352;75;21527;-79
2021/07/31 09:27:25;;;;;;;4.42;3.72;;;;;;;37.30;21.51;99540.44;1835065;77;21067;-78
2021/07/31 09:30:03;;;;;;;6.95;3.80;;;;;;;37.27;21.66;99539.02;1858066;77;21028;-81
2021/07/31 09:32:42;;;;;;;11.90;4.37;;;;;;;35.95;23.08;99545.99;1824022;77;21033;-80
2021/07/31 09:35:23;;;;;;;5.58;4.00;;;;;;;35.58;23.42;99547.52;1858521;76;21137;-80
2021/07/31 09:37:54;;;;;;;9.90;4.67;;;;;;;35.15;23.56;99545.83;1845110;76;21606;-79
2021/07/31 09:40:30;;;;;;;7.78;4.17;;;;;;;35.02;24.27;99540.53;1809283;77;21069;-79
2021/07/31 09:43:14;;;;;;;4.95;4.00;;;;;;;35.29;24.49;99540.48;1828706;77;21400;-80
2021/07/31 09:45:42;;;;;;;6.60;4.22;;;;;;;35.70;24.05;99540.17;1817506;77;21074;-80
2021/07/31 09:48:09;;;;;;;5.75;4.10;;;;;;;36.11;23.48;99537.09;1815813;79;21015;-79
2021/07/31 09:50:46;;;;;;;5.10;3.90;;;;;;;36.41;22.84;99540.23;1816660;77;21073;-81
2021/07/31 09:53:15;;;;;;;14.13;4.87;;;;;;;36.45;22.42;99529.08;1823265;77;21022;-80
2021/07/31 09:55:58;;;;;;;6.33;4.10;;;;;;;36.28;22.81;99535.84;1835440;77;21501;-80
2021/07/31 09:58:27;;;;;;;6.67;4.00;;;;;;;36.22;23.29;99529.94;1835340;77;21018;-79
2021/07/31 10:00:54;;;;;;;10.23;3.87;;;;;;;36.48;22.82;99527.77;1767403;80;21031;-80
2021/07/31 10:03:23;;;;;;;7.62;4.33;;;;;;;36.85;22.49;99522.80;1760151;80;21065;-80
2021/07/31 10:05:50;;;;;;;10.15;4.40;;;;;;;37.13;21.75;99530.77;1774383;79;21266;-79
2021/07/31 10:08:19;;;;;;;8.85;4.30;;;;;;;36.91;22.15;99523.20;1775010;79;21942;-80
2021/07/31 10:10:46;;;;;;;10.90;5.00;;;;;;;36.43;21.91;99523.00;1768768;79;21072;-80
2021/07/31 10:13:13;;;;;;;7.10;3.95;;;;;;;36.31;22.99;99516.71;1767644;80;21045;-80
2021/07/31 10:15:40;;;;;;;6.92;4.15;;;;;;;36.44;22.12;99521.91;1752718;81;21086;-80
2021/07/31 10:18:10;;;;;;;9.73;4.00;;;;;;;36.41;22.17;99514.18;1767022;81;21068;-80
2021/07/31 10:20:38;;;;;;;8.25;4.10;;;;;;;36.59;22.05;99509.11;1754786;81;21140;-80
2021/07/31 10:23:07;;;;;;;6.80;3.58;;;;;;;36.80;21.90;99516.39;1769464;79;21096;-81
2021/07/31 10:25:37;;;;;;;6.42;3.70;;;;;;;36.85;21.06;99517.31;1775743;80;21102;-82
2021/07/31 10:28:28;;;;;;;6.00;3.50;;;;;;;36.66;21.59;99515.83;1740642;80;20981;-80
2021/07/31 10:31:28;;;;;;;8.15;3.83;;;;;;;36.42;22.41;99509.01;1767525;79;21071;-81
2021/07/31 10:33:56;;;;;;;8.43;4.03;;;;;;;36.29;21.94;99503.78;1778051;79;21917;-80
2021/07/31 10:36:34;;;;;;;6.53;4.05;;;;;;;35.81;22.48;99508.95;1793532;79;20981;-81
2021/07/31 10:39:27;;;;;;;6.47;3.90;;;;;;;35.74;22.31;99504.13;1798467;79;21037;-81
2021/07/31 10:41:58;;;;;;;9.25;4.30;;;;;;;35.90;22.13;99506.16;1779866;79;21009;-80
2021/07/31 10:44:28;;;;;;;6.58;3.87;;;;;;;35.97;22.13;99500.02;1775612;79;21044;-80
2021/07/31 10:47:24;;;;;;;19.47;5.50;;;;;;;36.20;22.28;99502.48;1797354;79;21123;-81
2021/07/31 10:49:53;;;;;;;11.28;4.83;;;;;;;36.31;21.94;99496.98;1782612;78;22281;-81
2021/07/31 10:52:57;;;;;;;15.20;5.85;;;;;;;35.89;22.87;99497.62;1803272;78;21052;-80
2021/07/31 10:55:39;;;;;;;10.78;4.80;;;;;;;35.80;23.17;99499.05;1795561;79;21029;-81
2021/07/31 10:58:17;;;;;;;10.28;4.40;;;;;;;35.42;23.40;99501.66;1780270;78;20994;-80
2021/07/31 11:00:52;;;;;;;7.17;3.98;;;;;;;35.18;23.41;99497.49;1752787;78;21263;-81
2021/07/31 11:03:25;;;;;;;11.10;4.58;;;;;;;35.16;23.67;99507.84;1780945;78;21073;-81
2021/07/31 11:06:01;;;;;;;5.45;4.03;;;;;;;35.19;24.62;99507.36;1794891;79;21052;-81
2021/07/31 11:08:55;;;;;;;11.57;4.67;;;;;;;34.92;23.91;99501.39;1793018;79;21001;-82
2021/07/31 11:11:25;;;;;;;12.75;5.10;;;;;;;34.79;25.19;99496.95;1774880;80;21496;-82
2021/07/31 11:13:54;;;;;;;17.40;4.47;;;;;;;34.59;24.95;99500.44;1769768;78;21121;-80
2021/07/31 11:16:22;;;;;;;13.20;5.20;;;;;;;34.25;25.97;99490.41;1782170;80;21040;-82
2021/07/31 11:18:58;;;;;;;9.65;4.72;;;;;;;33.96;25.89;99503.72;1785535;79;21051;-81
2021/07/31 11:21:38;;;;;;;7.80;4.78;;;;;;;33.76;26.80;99498.96;1775084;78;21580;-81
2021/07/31 11:24:08;;;;;;;11.63;4.83;;;;;;;33.43;26.24;99498.67;1774392;78;21115;-80
2021/07/31 11:26:54;;;;;;;11.45;5.12;;;;;;;33.31;26.58;99493.59;1793142;78;21108;-79
2021/07/31 11:29:28;;;;;;;10.15;4.90;;;;;;;33.34;26.98;99484.46;1778464;79;21093;-79
2021/07/31 11:32:12;;;;;;;11.63;5.17;;;;;;;33.64;26.95;99483.30;1785046;79;21602;-80
2021/07/31 11:34:47;;;;;;;9.98;4.37;;;;;;;34.01;26.67;99476.55;1774912;80;21112;-79
2021/07/31 11:37:15;;;;;;;6.47;4.30;;;;;;;34.55;26.19;99474.07;1763713;79;21057;-82